createdAt,value
2018-02-22T05:27:10.624Z,77.87
2018-02-22T05:28:10.321Z,77.78
2018-02-22T05:29:10.306Z,77.78
2018-02-22T05:30:10.277Z,78.16
2018-02-22T05:31:10.254Z,77.97
2018-02-22T05:32:10.241Z,77.78
2018-02-22T05:33:10.272Z,77.78
2018-02-22T05:34:10.222Z,78.25
2018-02-22T05:35:10.179Z,78.16
2018-02-22T05:36:10.167Z,78.25
2018-02-22T05:37:10.145Z,77.78
2018-02-22T05:38:10.126Z,78.25
2018-02-22T05:39:10.109Z,77.69
2018-02-22T05:40:10.083Z,77.78
2018-02-22T05:41:10.072Z,78.16
2018-02-22T05:42:10.054Z,77.97
2018-02-22T05:43:10.025Z,77.78
2018-02-22T05:44:10.030Z,77.97
2018-02-22T05:45:09.971Z,77.97
2018-02-22T05:46:09.995Z,77.97
2018-02-22T05:47:09.931Z,77.97
2018-02-22T05:48:09.916Z,77.78
2018-02-22T05:49:09.896Z,77.87
2018-02-22T05:50:09.907Z,78.06
2018-02-22T05:51:09.890Z,77.87
2018-02-22T05:52:09.858Z,77.69
2018-02-22T05:53:09.814Z,77.78
2018-02-22T05:54:09.791Z,77.69
2018-02-22T05:55:09.766Z,77.69
2018-02-22T05:56:09.755Z,77.69
2018-02-22T05:57:09.749Z,78.16
2018-02-22T05:58:09.719Z,77.78
2018-02-22T05:59:09.693Z,77.87
2018-02-22T06:00:09.677Z,78.16
2018-02-22T06:01:09.646Z,78.72
2018-02-22T06:02:09.697Z,78.34
2018-02-22T06:03:09.611Z,78.34
2018-02-22T06:04:09.589Z,78.44
2018-02-22T06:05:09.578Z,78.25
2018-02-22T06:06:09.563Z,78.81
2018-02-22T06:07:09.544Z,79.10
2018-02-22T06:08:09.545Z,79.10
2018-02-22T06:09:09.488Z,79.10
2018-02-22T06:10:09.467Z,79.19
2018-02-22T06:11:09.465Z,79.19
2018-02-22T06:12:09.428Z,79.00
2018-02-22T06:13:09.464Z,79.38
2018-02-22T06:14:09.389Z,79.00
2018-02-22T06:15:09.384Z,79.00
2018-02-22T06:16:10.309Z,79.38
2018-02-22T06:17:09.327Z,80.14
2018-02-22T06:18:10.307Z,80.05
2018-02-22T06:19:09.294Z,79.86
2018-02-22T06:20:09.276Z,79.86
2018-02-22T06:21:09.274Z,80.05
2018-02-22T06:22:09.233Z,80.62
2018-02-22T06:23:09.217Z,80.52
2018-02-22T06:24:09.216Z,80.52
2018-02-22T06:25:09.179Z,80.52
2018-02-22T06:26:09.146Z,80.62
2018-02-22T06:27:09.130Z,80.71
2018-02-22T06:28:09.102Z,80.62
2018-02-22T06:29:09.111Z,81.18
2018-02-22T06:30:09.049Z,80.90
2018-02-22T06:31:09.054Z,81.09
2018-02-22T06:32:09.038Z,81.56
2018-02-22T06:33:09.011Z,81.56
2018-02-22T06:34:08.985Z,81.84
2018-02-22T06:35:08.965Z,82.12
2018-02-22T06:36:08.995Z,81.84
2018-02-22T06:37:08.916Z,81.93
2018-02-22T06:38:08.902Z,82.12
2018-02-22T06:39:08.871Z,82.37
2018-02-22T06:40:08.871Z,82.46
2018-02-22T06:41:08.840Z,82.18
2018-02-22T06:42:08.850Z,82.28
2018-02-22T06:43:08.788Z,82.18
2018-02-22T06:44:08.776Z,82.31
2018-02-22T06:45:08.777Z,82.31
2018-02-22T06:46:08.731Z,82.31
2018-02-22T06:47:08.804Z,82.22
2018-02-22T06:48:08.682Z,82.69
2018-02-22T06:49:08.671Z,82.60
2018-02-22T06:50:08.671Z,82.22
2018-02-22T06:51:08.672Z,82.69
2018-02-22T06:52:08.628Z,82.60
2018-02-22T06:53:08.604Z,82.88
2018-02-22T06:54:08.569Z,82.31
2018-02-22T06:55:08.571Z,82.88
2018-02-22T06:56:08.530Z,82.41
2018-02-22T06:57:08.540Z,83.07
2018-02-22T06:58:08.487Z,82.88
2018-02-22T06:59:08.466Z,82.60
2018-02-22T07:00:08.449Z,82.31
2018-02-22T07:01:08.483Z,82.31
2018-02-22T07:02:08.410Z,82.41
2018-02-22T07:03:08.384Z,82.69
2018-02-22T07:04:08.371Z,81.93
2018-02-22T07:05:08.348Z,81.84
2018-02-22T07:06:08.327Z,81.84
2018-02-22T07:07:08.324Z,81.84
2018-02-22T07:08:08.284Z,82.03
2018-02-22T07:09:08.260Z,81.74
2018-02-22T07:10:08.245Z,82.22
2018-02-22T07:11:08.282Z,81.74
2018-02-22T07:12:08.198Z,81.65
2018-02-22T07:13:08.174Z,81.84
2018-02-22T07:14:08.160Z,81.56
2018-02-22T07:15:08.135Z,81.56
2018-02-22T07:16:08.122Z,81.56
2018-02-22T07:17:08.136Z,81.56
2018-02-22T07:18:08.082Z,81.46
2018-02-22T07:19:08.055Z,81.46
2018-02-22T07:20:08.052Z,81.74
2018-02-22T07:21:08.009Z,81.46
2018-02-22T07:22:08.056Z,81.56
2018-02-22T07:23:16.652Z,81.84
2018-02-22T07:24:07.962Z,81.74
2018-02-22T07:25:07.932Z,81.84
2018-02-22T07:26:07.920Z,81.65
2018-02-22T07:27:07.888Z,81.56
2018-02-22T07:28:07.879Z,81.74
2018-02-22T07:29:07.854Z,81.84
2018-02-22T07:30:07.847Z,81.46
2018-02-22T07:31:07.820Z,81.74
2018-02-22T07:32:07.795Z,81.84
2018-02-22T07:33:07.828Z,81.09
2018-02-22T07:34:07.773Z,81.74
2018-02-22T07:35:07.744Z,81.74
2018-02-22T07:36:07.714Z,81.74
2018-02-22T07:37:07.693Z,81.46
2018-02-22T07:38:07.672Z,81.65
2018-02-22T07:39:07.690Z,81.84
2018-02-22T07:40:07.644Z,81.84
2018-02-22T07:41:07.617Z,81.56
2018-02-22T07:42:07.598Z,81.65
2018-02-22T07:43:07.617Z,81.65
2018-02-22T07:44:07.562Z,81.27
2018-02-22T07:45:07.527Z,81.46
2018-02-22T07:46:07.517Z,80.99
2018-02-22T07:47:07.490Z,81.27
2018-02-22T07:48:07.504Z,81.18
2018-02-22T07:49:07.456Z,81.18
2018-02-22T07:50:07.434Z,81.09
2018-02-22T07:51:07.419Z,81.37
2018-02-22T07:52:07.418Z,80.71
2018-02-22T07:53:07.807Z,80.80
2018-02-22T07:54:07.350Z,80.90
2018-02-22T07:55:07.389Z,80.99
2018-02-22T07:56:07.314Z,80.99
2018-02-22T07:57:07.286Z,81.18
2018-02-22T07:58:07.266Z,80.99
2018-02-22T07:59:07.262Z,80.99
2018-02-22T08:00:07.279Z,81.13
2018-02-22T08:01:07.263Z,81.22
2018-02-22T08:02:07.186Z,80.65
2018-02-22T08:03:07.162Z,80.75
2018-02-22T08:04:07.157Z,80.46
2018-02-22T08:05:07.128Z,80.46
2018-02-22T08:06:07.799Z,80.56
2018-02-22T08:07:08.840Z,80.56
2018-02-22T08:08:07.108Z,80.56
2018-02-22T08:09:07.167Z,80.75
2018-02-22T08:10:08.526Z,80.75
2018-02-22T08:17:26.857Z,81.03
2018-02-22T08:18:26.767Z,81.09
2018-02-22T08:19:26.317Z,80.94
2018-02-22T08:20:26.546Z,80.90
2018-02-22T08:21:28.137Z,81.13
2018-02-22T08:22:26.221Z,81.22
2018-02-22T08:23:26.200Z,81.09
2018-02-22T08:28:31.123Z,81.79
2018-02-22T08:29:31.148Z,81.51
2018-02-22T08:30:31.069Z,81.51
2018-02-22T08:31:31.050Z,80.84
2018-02-22T08:41:59.070Z,81.03
2018-02-22T08:42:31.950Z,81.13
2018-02-22T08:43:32.649Z,81.13
2018-02-22T08:44:31.938Z,80.94
2018-02-22T08:45:31.902Z,81.41
2018-02-22T08:46:31.980Z,81.13
2018-02-22T08:47:32.430Z,81.32
2018-02-22T08:48:31.817Z,81.13
2018-02-22T08:49:31.777Z,80.65
2018-02-22T08:50:31.768Z,80.94
2018-02-22T08:51:31.810Z,81.22
2018-02-22T08:52:31.720Z,80.94
2018-02-22T08:53:31.708Z,81.03
2018-02-22T08:54:31.700Z,81.13
2018-02-22T08:55:31.654Z,81.13
2018-02-22T08:56:31.661Z,80.94
2018-02-22T08:57:31.665Z,81.13
2018-02-22T08:58:31.604Z,80.46
2018-02-22T08:59:31.581Z,80.46
2018-02-22T09:00:31.567Z,80.46
2018-02-22T09:01:31.538Z,80.46
2018-02-22T09:02:31.575Z,80.94
2018-02-22T09:03:31.595Z,81.22
2018-02-22T09:04:31.482Z,81.13
2018-02-22T09:05:31.476Z,81.22
2018-02-22T09:06:31.445Z,80.84
2018-02-22T09:07:32.233Z,81.32
2018-02-22T09:08:31.391Z,81.22
2018-02-22T09:09:32.413Z,81.79
2018-02-22T09:10:32.337Z,81.79
2018-02-22T09:11:31.413Z,81.41
2018-02-22T09:12:31.448Z,81.51
2018-02-22T09:13:33.126Z,81.88
2018-02-22T09:14:31.411Z,81.70
2018-02-22T09:15:32.291Z,82.17
2018-02-22T09:16:31.355Z,81.60
2018-02-22T09:17:31.339Z,81.60
2018-02-22T09:18:31.285Z,81.88
2018-02-22T09:19:31.250Z,81.51
2018-02-22T09:20:31.231Z,81.60
2018-02-22T09:21:31.166Z,81.79
2018-02-22T09:22:31.150Z,81.60
2018-02-22T09:23:31.351Z,81.51
2018-02-22T09:24:31.765Z,81.70
2018-02-22T09:25:31.092Z,81.60
2018-02-22T09:26:31.105Z,81.60
2018-02-22T09:27:31.036Z,81.79
2018-02-22T09:28:31.755Z,81.88
2018-02-22T09:29:30.996Z,82.17
2018-02-22T09:30:31.066Z,82.26
2018-02-22T09:31:31.042Z,81.88
2018-02-22T09:32:32.209Z,81.41
2018-02-22T09:33:31.357Z,81.60
2018-02-22T09:34:30.904Z,81.32
2018-02-22T09:35:30.888Z,81.83
2018-02-22T09:36:30.890Z,81.74
2018-02-22T09:37:30.916Z,81.36
2018-02-22T09:38:30.834Z,81.64
2018-02-22T09:39:30.801Z,81.55
2018-02-22T09:40:32.697Z,81.74
2018-02-22T09:41:30.771Z,81.93
2018-02-22T09:42:30.794Z,81.74
2018-02-22T09:43:30.765Z,81.55
2018-02-22T09:44:30.771Z,81.55
2018-02-22T09:45:30.724Z,81.64
2018-02-22T09:46:30.757Z,81.55
2018-02-22T09:47:30.663Z,81.07
2018-02-22T09:48:30.674Z,80.60
2018-02-22T09:49:30.614Z,81.26
2018-02-22T09:50:30.595Z,80.51
2018-02-22T09:51:30.585Z,80.79
2018-02-22T09:52:30.561Z,80.88
2018-02-22T09:53:30.596Z,80.60
2018-02-22T09:54:30.527Z,80.98
2018-02-22T09:55:30.502Z,80.60
2018-02-22T09:56:30.487Z,80.41
2018-02-22T09:57:30.491Z,80.51
2018-02-22T09:58:30.462Z,80.41
2018-02-22T09:59:30.502Z,80.41
2018-02-22T10:00:30.410Z,80.41
2018-02-22T10:01:30.417Z,80.51
2018-02-22T10:02:30.387Z,80.79
2018-02-22T10:03:30.360Z,80.69
2018-02-22T10:04:30.352Z,80.60
2018-02-22T10:05:30.340Z,80.36
2018-02-22T10:06:30.346Z,80.60
2018-02-22T10:07:30.303Z,80.45
2018-02-22T10:08:30.284Z,80.55
2018-02-22T10:09:30.265Z,79.85
2018-02-22T10:10:30.237Z,80.26
2018-02-22T10:11:30.283Z,79.88
2018-02-22T10:12:30.206Z,79.79
2018-02-22T10:13:30.183Z,80.17
2018-02-22T10:14:30.160Z,79.98
2018-02-22T10:15:30.150Z,79.88
2018-02-22T10:16:30.141Z,79.88
2018-02-22T10:17:30.133Z,79.88
2018-02-22T10:18:30.085Z,79.41
2018-02-22T10:19:30.077Z,79.32
2018-02-22T10:20:30.065Z,79.13
2018-02-22T10:21:30.044Z,78.94
2018-02-22T10:22:30.035Z,79.03
2018-02-22T10:23:30.009Z,79.13
2018-02-22T10:24:29.994Z,79.03
2018-02-22T10:25:29.980Z,78.85
2018-02-22T10:26:29.951Z,78.85
2018-02-22T10:27:29.975Z,78.94
2018-02-22T10:28:29.962Z,78.46
2018-02-22T10:29:29.909Z,78.27
2018-02-22T10:30:29.882Z,78.56
2018-02-22T10:31:29.867Z,78.27
2018-02-22T10:32:29.857Z,78.31
2018-02-22T10:33:29.851Z,78.31
2018-02-22T10:34:29.830Z,78.69
2018-02-22T10:35:29.856Z,78.31
2018-02-22T10:36:29.781Z,78.13
2018-02-22T10:37:29.770Z,78.13
2018-02-22T10:38:29.754Z,77.94
2018-02-22T10:39:29.747Z,77.37
2018-02-22T10:40:29.727Z,76.89
2018-02-22T10:41:29.734Z,76.80
2018-02-22T10:42:29.752Z,76.99
2018-02-22T10:43:29.676Z,76.32
2018-02-22T10:44:29.657Z,76.32
2018-02-22T10:45:29.639Z,76.14
2018-02-22T10:46:29.624Z,76.14
2018-02-22T10:47:29.603Z,76.51
2018-02-22T10:48:29.631Z,76.32
2018-02-22T10:49:29.574Z,76.42
2018-02-22T10:50:29.564Z,76.80
2018-02-22T10:51:29.595Z,76.70
2018-02-22T10:52:29.537Z,76.93
2018-02-22T10:53:29.519Z,76.27
2018-02-22T10:54:29.502Z,76.08
2018-02-22T10:55:29.481Z,74.75
2018-02-22T10:56:29.470Z,75.19
2018-02-22T10:57:29.465Z,75.42
2018-02-22T10:58:29.435Z,75.23
2018-02-22T10:59:29.416Z,75.13
2018-02-22T11:00:29.466Z,74.85
2018-02-22T11:01:29.392Z,74.95
2018-02-22T11:02:29.362Z,75.13
2018-02-22T11:03:29.364Z,75.13
2018-02-22T11:04:29.347Z,74.56
2018-02-22T11:05:29.331Z,73.52
2018-02-22T11:06:29.377Z,72.67
2018-02-22T11:07:29.311Z,73.05
2018-02-22T11:08:29.271Z,72.67
2018-02-22T11:09:29.258Z,73.52
2018-02-22T11:10:29.293Z,73.43
2018-02-22T11:11:29.229Z,74.28
2018-02-22T11:12:29.234Z,73.43
2018-02-22T11:13:29.204Z,72.38
2018-02-22T11:14:29.194Z,72.19
2018-02-22T11:15:29.185Z,72.10
2018-02-22T11:16:29.160Z,71.88
2018-02-22T11:17:29.198Z,72.06
2018-02-22T11:18:29.127Z,72.82
2018-02-22T11:19:29.126Z,73.20
2018-02-22T11:20:29.104Z,73.11
2018-02-22T11:21:29.096Z,73.20
2018-02-22T11:22:29.072Z,72.92
2018-02-22T11:23:29.080Z,73.77
2018-02-22T11:24:29.040Z,73.49
2018-02-22T11:25:29.024Z,73.11
2018-02-22T11:26:29.018Z,73.20
2018-02-22T11:27:29.046Z,73.30
2018-02-22T11:28:28.967Z,73.68
2018-02-22T11:29:28.955Z,74.15
2018-02-22T11:30:28.936Z,74.05
2018-02-22T11:31:28.920Z,74.15
2018-02-22T11:32:28.911Z,73.96
2018-02-22T11:33:28.934Z,74.15
2018-02-22T11:34:28.876Z,73.49
2018-02-22T11:35:28.871Z,73.68
2018-02-22T11:36:28.843Z,73.58
2018-02-22T11:37:28.840Z,73.58
2018-02-22T11:38:28.863Z,74.15
2018-02-22T11:39:28.794Z,74.05
2018-02-22T11:40:28.790Z,73.39
2018-02-22T11:41:28.763Z,73.68
2018-02-22T11:42:28.744Z,73.49
2018-02-22T11:43:28.733Z,73.49
2018-02-22T11:44:28.720Z,73.01
2018-02-22T11:45:28.691Z,73.30
2018-02-22T11:46:28.682Z,73.30
2018-02-22T11:47:28.657Z,73.58
2018-02-22T11:48:28.638Z,73.30
2018-02-22T11:49:28.715Z,73.58
2018-02-22T11:50:28.614Z,74.24
2018-02-22T11:51:28.598Z,74.28
2018-02-22T11:52:28.585Z,73.71
2018-02-22T11:53:28.560Z,73.61
2018-02-22T11:54:28.551Z,73.14
2018-02-22T11:55:28.568Z,73.24
2018-02-22T11:56:28.517Z,73.24
2018-02-22T11:57:28.499Z,72.96
2018-02-22T11:58:28.546Z,73.05
2018-02-22T11:59:28.474Z,73.05
2018-02-22T12:00:28.455Z,73.05
2018-02-22T12:01:28.490Z,72.38
2018-02-22T12:02:28.425Z,72.10
2018-02-22T12:03:28.399Z,72.42
2018-02-22T12:04:28.388Z,72.14
2018-02-22T12:05:28.376Z,73.46
2018-02-22T12:06:28.358Z,73.22
2018-02-22T12:07:28.383Z,73.12
2018-02-22T12:08:28.330Z,72.78
2018-02-22T12:09:28.318Z,73.16
2018-02-22T12:10:28.311Z,70.31
2018-02-22T12:11:28.299Z,70.12
2018-02-22T12:12:28.339Z,68.70
2018-02-22T12:13:28.275Z,67.65
2018-02-22T12:14:28.268Z,68.04
2018-02-22T12:15:28.256Z,68.73
2018-02-22T12:16:28.239Z,68.64
2018-02-22T12:17:28.285Z,68.44
2018-02-22T12:18:28.221Z,68.44
2018-02-22T12:19:28.217Z,67.21
2018-02-22T12:20:28.188Z,65.79
2018-02-22T12:21:28.187Z,65.69
2018-02-22T12:22:28.184Z,65.79
2018-02-22T12:23:28.181Z,66.08
2018-02-22T12:24:28.221Z,65.79
2018-02-22T12:25:28.150Z,65.82
2018-02-22T12:26:28.129Z,66.39
2018-02-22T12:27:28.124Z,66.30
2018-02-22T12:28:28.115Z,65.82
2018-02-22T12:29:28.102Z,66.01
2018-02-22T12:30:28.162Z,64.59
2018-02-22T12:31:28.091Z,64.30
2018-02-22T12:32:28.101Z,63.54
2018-02-22T12:33:28.066Z,62.02
2018-02-22T12:34:28.056Z,62.75
2018-02-22T12:35:28.049Z,63.32
2018-02-22T12:36:28.103Z,63.45
2018-02-22T12:37:28.014Z,63.35
2018-02-22T12:38:28.017Z,63.64
2018-02-22T12:39:28.007Z,64.11
2018-02-22T12:40:27.991Z,64.11
2018-02-22T12:41:27.984Z,64.21
2018-02-22T12:42:28.029Z,63.35
2018-02-22T12:43:27.972Z,63.07
2018-02-22T12:44:27.957Z,62.59
2018-02-22T12:45:27.961Z,62.88
2018-02-22T12:46:27.931Z,62.18
2018-02-22T12:47:27.925Z,62.69
2018-02-22T12:48:27.943Z,62.37
2018-02-22T12:49:28.016Z,60.85
2018-02-22T12:50:27.896Z,61.33
2018-02-22T12:51:27.872Z,61.61
2018-02-22T12:52:27.872Z,61.04
2018-02-22T12:53:27.858Z,61.33
2018-02-22T12:54:27.843Z,61.52
2018-02-22T12:55:27.841Z,61.71
2018-02-22T12:56:27.824Z,61.52
2018-02-22T12:57:27.819Z,62.08
2018-02-22T12:58:27.811Z,62.69
2018-02-22T12:59:27.802Z,62.69
2018-02-22T13:00:27.805Z,62.40
2018-02-22T13:01:27.767Z,61.74
2018-02-22T13:02:27.774Z,60.88
2018-02-22T13:03:27.746Z,61.07
2018-02-22T13:04:27.770Z,61.36
2018-02-22T13:05:27.740Z,60.98
2018-02-22T13:06:27.716Z,60.50
2018-02-22T13:07:28.155Z,60.41
2018-02-22T13:08:27.692Z,59.74
2018-02-22T13:09:27.691Z,60.13
2018-02-22T13:10:27.680Z,59.93
2018-02-22T13:11:27.677Z,59.65
2018-02-22T13:12:27.684Z,59.93
2018-02-22T13:13:27.680Z,60.98
2018-02-22T13:14:27.674Z,60.69
2018-02-22T13:15:27.620Z,60.03
2018-02-22T13:16:27.614Z,60.13
2018-02-22T13:17:27.611Z,60.98
2018-02-22T13:18:27.664Z,60.88
2018-02-22T13:19:27.576Z,60.50
2018-02-22T13:20:27.591Z,59.93
2018-02-22T13:21:27.568Z,59.84
2018-02-22T13:22:27.579Z,60.50
2018-02-22T13:23:27.526Z,60.31
2018-02-22T13:24:27.579Z,60.03
2018-02-22T13:25:27.519Z,60.19
2018-02-22T13:26:27.507Z,59.46
2018-02-22T13:27:27.484Z,60.13
2018-02-22T13:28:27.477Z,59.33
2018-02-22T13:29:27.469Z,59.24
2018-02-22T13:30:27.464Z,59.62
2018-02-22T13:31:27.454Z,59.62
2018-02-22T13:32:27.434Z,59.24
2018-02-22T13:33:27.420Z,58.95
2018-02-22T13:34:27.612Z,59.05
2018-02-22T13:35:27.405Z,58.86
2018-02-22T13:36:27.383Z,58.20
2018-02-22T13:37:27.367Z,58.67
2018-02-22T13:38:27.351Z,58.86
2018-02-22T13:39:27.349Z,59.81
2018-02-22T13:40:27.355Z,59.91
2018-02-22T13:41:28.158Z,60.38
2018-02-22T13:42:27.319Z,60.95
2018-02-22T13:43:27.283Z,61.17
2018-02-22T13:44:27.305Z,60.69
2018-02-22T13:45:27.281Z,59.65
2018-02-22T13:46:27.255Z,59.05
2018-02-22T13:47:27.255Z,58.00
2018-02-22T13:48:27.239Z,58.10
2018-02-22T13:49:27.249Z,58.13
2018-02-22T13:50:27.263Z,58.32
2018-02-22T13:51:27.242Z,58.13
2018-02-22T13:52:27.226Z,58.70
2018-02-22T13:53:27.188Z,58.89
2018-02-22T13:54:27.164Z,59.17
2018-02-22T13:55:27.158Z,59.65
2018-02-22T13:56:27.209Z,59.93
2018-02-22T13:57:27.131Z,60.31
2018-02-22T13:58:27.142Z,60.31
2018-02-22T13:59:27.109Z,59.84
2018-02-22T14:00:27.086Z,59.08
2018-02-22T14:01:27.075Z,59.46
2018-02-22T14:02:27.092Z,58.80
2018-02-22T14:03:27.064Z,58.80
2018-02-22T14:04:27.037Z,59.93
2018-02-22T14:05:27.037Z,60.06
2018-02-22T14:06:27.045Z,59.20
2018-02-22T14:07:27.081Z,59.20
2018-02-22T14:08:26.997Z,59.11
2018-02-22T14:09:26.976Z,58.83
2018-02-22T14:10:26.983Z,57.11
2018-02-22T14:11:26.968Z,57.30
2018-02-22T14:12:26.963Z,58.37
2018-02-22T14:13:26.973Z,57.62
2018-02-22T14:14:26.927Z,57.62
2018-02-22T14:15:26.925Z,56.95
2018-02-22T14:16:26.905Z,57.17
2018-02-22T14:17:26.927Z,56.60
2018-02-22T14:18:26.941Z,56.22
2018-02-22T14:19:26.906Z,55.36
2018-02-22T14:20:26.881Z,56.12
2018-02-22T14:21:26.874Z,55.46
2018-02-22T14:22:26.859Z,54.41
2018-02-22T14:23:26.899Z,54.13
2018-02-22T14:24:26.834Z,54.44
2018-02-22T14:25:26.821Z,54.41
2018-02-22T14:26:26.829Z,53.17
2018-02-22T14:27:26.814Z,52.41
2018-02-22T14:28:26.799Z,53.75
2018-02-22T14:29:26.825Z,53.65
2018-02-22T14:30:26.791Z,54.50
2018-02-22T14:31:26.796Z,54.50
2018-02-22T14:32:26.800Z,53.75
2018-02-22T14:33:26.802Z,53.77
2018-02-22T14:34:26.748Z,53.58
2018-02-22T14:35:26.751Z,53.96
2018-02-22T14:36:26.733Z,53.58
2018-02-22T14:37:26.735Z,53.52
2018-02-22T14:38:26.786Z,53.61
2018-02-22T14:39:26.720Z,53.99
2018-02-22T14:40:26.706Z,53.61
2018-02-22T14:41:26.700Z,53.70
2018-02-22T14:42:26.697Z,53.80
2018-02-22T14:43:26.688Z,52.28
2018-02-22T14:44:26.690Z,50.75
2018-02-22T14:45:26.667Z,50.75
2018-02-22T14:46:26.653Z,51.32
2018-02-22T14:47:26.644Z,51.45
2018-02-22T14:48:26.704Z,51.35
2018-02-22T14:49:26.649Z,50.68
2018-02-22T14:50:26.647Z,50.59
2018-02-22T14:51:26.626Z,49.42
2018-02-22T14:52:26.667Z,50.46
2018-02-22T14:53:26.636Z,50.21
2018-02-22T14:54:26.623Z,49.73
2018-02-22T14:55:26.617Z,50.68
2018-02-22T14:56:26.634Z,50.68
2018-02-22T14:57:26.595Z,48.78
2018-02-22T14:58:26.589Z,48.49
2018-02-22T14:59:26.602Z,49.23
2018-02-22T15:00:26.632Z,49.63
2018-02-22T15:01:26.617Z,50.30
2018-02-22T15:02:26.574Z,48.78
2018-02-22T15:03:26.564Z,49.73
2018-02-22T15:04:26.554Z,49.92
2018-02-22T15:05:26.561Z,50.40
2018-02-22T15:06:26.576Z,51.54
2018-02-22T15:07:26.538Z,50.40
2018-02-22T15:08:26.526Z,49.63
2018-02-22T15:09:26.513Z,49.26
2018-02-22T15:10:26.515Z,50.01
2018-02-22T15:11:26.520Z,49.82
2018-02-22T15:12:26.510Z,49.82
2018-02-22T15:13:26.521Z,49.82
2018-02-22T15:14:26.523Z,49.71
2018-02-22T15:15:26.493Z,49.80
2018-02-22T15:16:26.563Z,50.75
2018-02-22T15:17:26.467Z,49.80
2018-02-22T15:18:26.480Z,49.99
2018-02-22T15:19:27.206Z,49.71
2018-02-22T15:20:26.452Z,50.44
2018-02-22T15:21:26.454Z,50.35
2018-02-22T15:22:26.481Z,50.46
2018-02-22T15:23:26.472Z,49.68
2018-02-22T15:24:26.619Z,50.25
2018-02-22T15:25:26.413Z,50.37
2018-02-22T15:26:26.428Z,51.14
2018-02-22T15:27:26.495Z,50.94
2018-02-22T15:28:26.400Z,50.37
2018-02-22T15:29:26.396Z,50.75
2018-02-22T15:30:26.384Z,49.42
2018-02-22T15:31:26.384Z,49.90
2018-02-22T15:32:26.361Z,50.46
2018-02-22T15:33:26.392Z,50.37
2018-02-22T15:34:26.362Z,50.46
2018-02-22T15:35:26.362Z,50.68
2018-02-22T15:36:26.349Z,50.56
2018-02-22T15:37:26.320Z,49.90
2018-02-22T15:38:26.381Z,50.40
2018-02-22T15:39:26.318Z,51.35
2018-02-22T15:40:26.331Z,51.82
2018-02-22T15:41:26.304Z,51.54
2018-02-22T15:42:26.288Z,51.82
2018-02-22T15:43:26.318Z,52.01
2018-02-22T15:44:26.295Z,51.92
2018-02-22T15:45:26.259Z,52.56
2018-02-22T15:46:26.263Z,52.09
2018-02-22T15:47:26.305Z,51.42
2018-02-22T15:48:26.245Z,50.54
2018-02-22T15:49:26.232Z,50.35
2018-02-22T15:50:26.223Z,50.35
2018-02-22T15:51:26.203Z,50.79
2018-02-22T15:52:26.200Z,51.37
2018-02-22T15:53:26.239Z,51.25
2018-02-22T15:54:26.179Z,52.48
2018-02-22T15:55:26.171Z,52.58
2018-02-22T15:56:26.177Z,52.29
2018-02-22T15:57:26.153Z,52.29
2018-02-22T15:58:26.141Z,52.39
2018-02-22T15:59:26.188Z,52.86
2018-02-22T16:00:26.114Z,52.76
2018-02-22T16:01:26.114Z,52.93
2018-02-22T16:02:26.096Z,53.88
2018-02-22T16:03:26.080Z,54.74
2018-02-22T16:04:26.080Z,53.88
2018-02-22T16:05:26.219Z,54.74
2018-02-22T16:06:26.055Z,54.64
2018-02-22T16:07:26.033Z,54.26
2018-02-22T16:08:26.033Z,54.55
2018-02-22T16:09:26.010Z,55.28
2018-02-22T16:10:26.059Z,55.09
2018-02-22T16:11:25.985Z,55.57
2018-02-22T16:12:25.976Z,56.80
2018-02-22T16:13:25.970Z,56.32
2018-02-22T16:14:25.956Z,56.61
2018-02-22T16:15:25.930Z,57.37
2018-02-22T16:16:25.933Z,57.28
2018-02-22T16:17:25.987Z,57.75
2018-02-22T16:18:25.893Z,58.13
2018-02-22T16:19:25.885Z,57.84
2018-02-22T16:20:25.877Z,57.46
2018-02-22T16:21:25.856Z,58.03
2018-02-22T16:22:25.854Z,57.84
2018-02-22T16:23:26.712Z,58.41
2018-02-22T16:24:25.816Z,58.80
2018-02-22T16:25:25.807Z,58.98
2018-02-22T16:26:25.790Z,59.46
2018-02-22T16:27:25.771Z,59.05
2018-02-22T16:28:25.760Z,59.05
2018-02-22T16:29:25.744Z,59.52
2018-02-22T16:30:25.730Z,59.33
2018-02-22T16:31:25.752Z,59.81
2018-02-22T16:32:25.712Z,59.81
2018-02-22T16:33:25.725Z,60.00
2018-02-22T16:34:25.673Z,60.28
2018-02-22T16:35:25.658Z,60.38
2018-02-22T16:36:25.646Z,60.57
2018-02-22T16:37:25.654Z,60.82
2018-02-22T16:38:25.611Z,60.53
2018-02-22T16:39:25.600Z,60.92
2018-02-22T16:40:25.582Z,60.82
2018-02-22T16:41:25.605Z,60.92
2018-02-22T16:42:25.603Z,61.20
2018-02-22T16:43:25.535Z,61.11
2018-02-22T16:44:25.525Z,61.68
2018-02-22T16:45:25.504Z,62.24
2018-02-22T16:46:25.508Z,61.77
2018-02-22T16:47:25.478Z,61.77
2018-02-22T16:48:25.474Z,61.58
2018-02-22T16:49:25.445Z,61.58
2018-02-22T16:50:25.434Z,61.87
2018-02-22T16:51:25.487Z,62.15
2018-02-22T16:52:25.395Z,62.31
2018-02-22T16:53:25.392Z,62.02
2018-02-22T16:54:25.446Z,62.50
2018-02-22T16:55:25.360Z,62.50
2018-02-22T16:56:25.339Z,62.50
2018-02-22T16:57:25.332Z,62.69
2018-02-22T16:58:25.308Z,62.31
2018-02-22T16:59:25.330Z,62.12
2018-02-22T17:00:25.280Z,62.69
2018-02-22T17:01:25.266Z,62.78
2018-02-22T17:02:25.244Z,62.78
2018-02-22T17:03:25.232Z,62.69
2018-02-22T17:04:25.244Z,62.40
2018-02-22T17:05:25.204Z,62.31
2018-02-22T17:06:25.184Z,62.02
2018-02-22T17:07:25.162Z,62.50
2018-02-22T17:08:25.148Z,62.59
2018-02-22T17:09:25.193Z,63.45
2018-02-22T17:10:25.114Z,63.73
2018-02-22T17:11:25.157Z,63.82
2018-02-22T17:12:25.079Z,63.45
2018-02-22T17:13:25.064Z,63.73
2018-02-22T17:14:25.054Z,64.01
2018-02-22T17:15:25.025Z,63.82
2018-02-22T17:16:25.019Z,63.73
2018-02-22T17:17:25.020Z,63.92
2018-02-22T17:18:25.019Z,63.92
2018-02-22T17:19:24.985Z,63.73
2018-02-22T17:20:24.958Z,63.73
2018-02-22T17:21:24.943Z,64.30
2018-02-22T17:22:24.932Z,64.11
2018-02-22T17:23:24.967Z,63.82
2018-02-22T17:24:24.886Z,64.11
2018-02-22T17:25:24.914Z,64.17
2018-02-22T17:26:24.866Z,63.98
2018-02-22T17:27:24.884Z,63.73
2018-02-22T17:28:24.816Z,63.79
2018-02-22T17:29:24.797Z,63.89
2018-02-22T17:30:24.794Z,63.70
2018-02-22T17:31:24.771Z,64.08
2018-02-22T17:32:24.755Z,64.08
2018-02-22T17:33:24.768Z,63.98
2018-02-22T17:34:24.727Z,63.79
2018-02-22T17:35:24.701Z,64.36
2018-02-22T17:36:24.695Z,63.89
2018-02-22T17:37:24.674Z,63.79
2018-02-22T17:38:24.720Z,63.89
2018-02-22T17:39:24.641Z,63.70
2018-02-22T17:40:24.625Z,63.79
2018-02-22T17:41:24.611Z,64.08
2018-02-22T17:42:24.581Z,64.65
2018-02-22T17:43:24.573Z,64.36
2018-02-22T17:44:24.715Z,64.36
2018-02-22T17:45:24.543Z,64.46
2018-02-22T17:46:24.525Z,64.08
2018-02-22T17:47:24.515Z,64.08
2018-02-22T17:48:24.683Z,64.08
2018-02-22T17:49:24.469Z,64.08
2018-02-22T17:50:24.460Z,64.65
2018-02-22T17:51:24.443Z,64.74
2018-02-22T17:52:24.440Z,65.03
2018-02-22T17:53:24.404Z,64.74
2018-02-22T17:54:24.695Z,64.74
2018-02-22T17:55:24.367Z,64.74
2018-02-22T17:56:24.393Z,64.74
2018-02-22T17:57:24.339Z,64.84
2018-02-22T17:58:24.377Z,64.93
2018-02-22T17:59:24.316Z,65.31
2018-02-22T18:00:24.338Z,65.41
2018-02-22T18:01:24.278Z,65.03
2018-02-22T18:02:24.255Z,64.84
2018-02-22T18:03:24.227Z,65.03
2018-02-22T18:04:24.219Z,64.84
2018-02-22T18:05:24.216Z,65.50
2018-02-22T18:06:24.251Z,65.03
2018-02-22T18:07:24.168Z,65.03
2018-02-22T18:08:24.148Z,64.74
2018-02-22T18:09:24.130Z,64.93
2018-02-22T18:10:24.121Z,65.31
2018-02-22T18:11:24.096Z,65.03
2018-02-22T18:12:24.098Z,65.59
2018-02-22T18:13:24.077Z,65.50
2018-02-22T18:14:24.060Z,65.69
2018-02-22T18:15:24.036Z,65.69
2018-02-22T18:16:24.025Z,65.88
2018-02-22T18:17:24.038Z,65.22
2018-02-22T18:18:24.018Z,65.59
2018-02-22T18:19:23.963Z,65.88
2018-02-22T18:20:23.951Z,65.69
2018-02-22T18:21:23.955Z,65.94
2018-02-22T18:22:23.919Z,65.78
2018-02-22T18:23:23.927Z,65.94
2018-02-22T18:24:23.881Z,65.50
2018-02-22T18:25:23.856Z,65.75
2018-02-22T18:26:23.847Z,65.75
2018-02-22T18:27:23.830Z,65.84
2018-02-22T18:28:23.841Z,66.03
2018-02-22T18:29:23.791Z,65.75
2018-02-22T18:30:23.775Z,64.90
2018-02-22T18:31:23.757Z,65.28
2018-02-22T18:32:23.803Z,65.09
2018-02-22T18:33:23.726Z,64.90
2018-02-22T18:34:23.707Z,65.28
2018-02-22T18:35:23.699Z,65.28
2018-02-22T18:36:23.682Z,65.37
2018-02-22T18:37:23.658Z,65.00
2018-02-22T18:38:23.703Z,64.90